Time;durP1;ratioP1;P1;durP2;ratioP2;P2;SDS_P1;SDS_P2;PMS_P1;PMS_P2;Temp;Humidity;BMP_temperature;BMP_pressure;BME280_temperature;BME280_humidity;BME280_pressure;Samples;Min_cycle;Max_cycle;Signal;HPM_P1;HPM_P2
2021/07/17 00:02:25;;;;;;;7.78;7.20;;;17.50;99.90;;;18.35;94.57;98383.47;5169481;28;20586;-62
2021/07/17 00:05:00;;;;;;;7.60;6.95;;;17.50;99.90;;;18.35;94.58;98383.47;5180294;28;20214;-62
2021/07/17 00:07:33;;;;;;;7.35;6.75;;;17.50;99.90;;;18.36;95.52;98386.09;5176661;28;20312;-62
2021/07/17 00:10:07;;;;;;;7.07;6.57;;;17.50;99.90;;;18.40;95.08;98381.94;5184513;28;20572;-62
2021/07/17 00:12:42;;;;;;;7.53;6.93;;;17.60;99.90;;;18.43;95.09;98376.84;5176807;28;20198;-62
2021/07/17 00:15:19;;;;;;;7.60;7.10;;;17.60;99.90;;;18.46;94.47;98382.13;5178466;28;20226;-61
2021/07/17 00:17:52;;;;;;;7.15;6.53;;;17.50;99.90;;;18.45;93.61;98378.63;5167741;28;20610;-62
2021/07/17 00:20:26;;;;;;;7.95;7.25;;;17.50;99.90;;;18.43;93.40;98377.72;5175348;28;20217;-62
2021/07/17 00:23:00;;;;;;;7.35;6.68;;;17.50;99.90;;;18.41;93.54;98378.50;5178284;28;20377;-63
2021/07/17 00:25:33;;;;;;;7.10;6.50;;;17.50;99.90;;;18.37;93.59;98367.16;5164102;28;20602;-63
2021/07/17 00:28:06;;;;;;;7.07;6.57;;;17.40;99.90;;;18.36;93.91;98369.69;5166208;28;20196;-62
2021/07/17 00:30:39;;;;;;;6.63;6.13;;;17.50;99.90;;;18.33;93.83;98377.34;5163923;28;20210;-62
2021/07/17 00:33:12;;;;;;;8.00;6.75;;;17.40;99.90;;;18.35;94.16;98378.28;5170295;28;20234;-62
2021/07/17 00:35:47;;;;;;;7.35;6.63;;;17.40;99.90;;;18.37;93.91;98380.09;5177905;28;20730;-62
2021/07/17 00:38:20;;;;;;;7.53;6.82;;;17.50;99.90;;;18.34;94.37;98377.41;5167323;28;20195;-62
2021/07/17 00:40:53;;;;;;;7.03;6.43;;;17.40;99.90;;;18.37;93.87;98382.69;5182906;28;20195;-62
2021/07/17 00:43:26;;;;;;;7.28;6.57;;;17.50;99.90;;;18.38;93.74;98389.63;5179381;28;20191;-62
2021/07/17 00:45:59;;;;;;;7.55;7.03;;;17.50;99.90;;;18.42;93.73;98386.31;5185350;28;20225;-62
2021/07/17 00:48:32;;;;;;;7.40;6.82;;;17.50;99.90;;;18.45;94.03;98372.59;5177807;28;20659;-63
2021/07/17 00:51:07;;;;;;;7.85;7.25;;;17.50;99.90;;;18.41;94.19;98374.19;5167485;28;20203;-62
2021/07/17 00:53:40;;;;;;;7.30;6.80;;;17.50;99.90;;;18.44;94.68;98379.47;5174270;28;20647;-62
2021/07/17 00:56:15;;;;;;;7.72;7.13;;;17.60;99.90;;;18.48;94.27;98379.56;5178400;28;20215;-62
2021/07/17 00:58:51;;;;;;;6.97;6.38;;;17.60;99.90;;;18.57;93.39;98379.88;5167313;28;20592;-62
2021/07/17 01:01:24;;;;;;;7.20;6.43;;;17.60;99.90;;;18.58;92.91;98381.66;5177015;28;20198;-62
2021/07/17 01:03:58;;;;;;;7.60;7.00;;;17.60;99.90;;;18.51;93.56;98379.69;5177777;28;20246;-62
2021/07/17 01:06:33;;;;;;;8.15;7.45;;;17.60;99.90;;;18.44;94.56;98379.47;5168108;28;20238;-62
2021/07/17 01:09:06;;;;;;;7.88;7.20;;;17.60;99.90;;;18.43;94.14;98377.72;5170165;28;20293;-62
2021/07/17 01:11:39;;;;;;;7.65;6.88;;;17.60;99.90;;;18.38;94.53;98379.28;5178329;28;20199;-62
2021/07/17 01:14:12;;;;;;;8.52;7.82;;;17.50;99.90;;;18.39;94.88;98381.03;5171521;28;20213;-62
2021/07/17 01:16:46;;;;;;;7.65;7.15;;;17.60;99.90;;;18.42;95.00;98383.72;5191732;28;20689;-62
2021/07/17 01:19:24;;;;;;;8.27;7.57;;;17.60;99.90;;;18.43;94.56;98385.50;5188682;28;20197;-62
2021/07/17 01:21:59;;;;;;;8.20;7.60;;;17.60;99.90;;;18.43;94.88;98382.91;5186594;28;20650;-62
2021/07/17 01:24:33;;;;;;;8.75;8.05;;;17.60;99.90;;;18.45;94.60;98385.53;5186515;28;20684;-62
2021/07/17 01:27:06;;;;;;;8.52;7.85;;;17.60;99.90;;;18.47;94.85;98394.25;5182607;28;20593;-61
2021/07/17 01:29:40;;;;;;;8.13;7.43;;;17.60;99.90;;;18.54;94.94;98397.91;5186140;28;20194;-62
2021/07/17 01:32:14;;;;;;;9.15;8.35;;;17.70;99.90;;;18.57;94.29;98396.34;5176528;28;20686;-62
2021/07/17 01:34:47;;;;;;;9.05;8.35;;;17.70;99.90;;;18.58;94.60;98392.03;5169992;28;20215;-62
2021/07/17 01:37:21;;;;;;;8.75;8.05;;;17.70;99.90;;;18.58;94.63;98398.06;5172738;28;20191;-62
2021/07/17 01:39:54;;;;;;;10.57;9.68;;;17.70;99.90;;;18.56;94.64;98385.91;5167561;28;20201;-62
2021/07/17 01:42:29;;;;;;;10.00;9.20;;;17.70;99.90;;;18.55;94.87;98390.22;5183622;28;20207;-62
2021/07/17 01:45:02;;;;;;;11.30;10.20;;;17.70;99.90;;;18.55;95.67;98390.22;5178854;28;20219;-62
2021/07/17 01:47:36;;;;;;;10.15;9.35;;;17.70;99.90;;;18.59;95.11;98393.78;5183486;28;20230;-62
2021/07/17 01:50:10;;;;;;;11.73;10.68;;;17.80;99.90;;;18.64;95.36;98384.47;5167722;28;20199;-62
2021/07/17 01:52:49;;;;;;;12.73;11.63;;;17.80;99.90;;;18.67;95.60;98381.97;5170526;28;20704;-62
2021/07/17 01:55:23;;;;;;;12.55;11.35;;;17.80;99.90;;;18.71;95.83;98381.22;5186054;28;20219;-62
2021/07/17 01:57:56;;;;;;;11.27;10.48;;;17.80;99.90;;;18.75;96.08;98371.91;5183368;28;20195;-62
2021/07/17 02:00:30;;;;;;;12.70;11.50;;;17.90;99.90;;;18.78;95.78;98369.41;5183287;28;20206;-62
2021/07/17 02:03:04;;;;;;;14.30;12.98;;;17.90;99.90;;;18.78;96.02;98365.13;5186345;28;20565;-62
2021/07/17 02:05:38;;;;;;;15.07;13.77;;;18.00;99.90;;;18.83;96.02;98363.56;5167974;28;20307;-62
2021/07/17 02:08:14;;;;;;;15.23;13.93;;;18.00;99.90;;;18.89;95.83;98362.88;5173093;28;20481;-62
2021/07/17 02:10:47;;;;;;;15.02;13.75;;;18.00;99.90;;;18.91;95.88;98356.00;5172782;28;20235;-62
2021/07/17 02:13:22;;;;;;;15.07;13.77;;;18.00;99.90;;;18.92;95.64;98356.91;5183073;28;20195;-62
2021/07/17 02:15:56;;;;;;;15.55;14.20;;;18.00;99.90;;;18.91;95.99;98356.00;5186569;28;20749;-62
2021/07/17 02:18:34;;;;;;;16.35;14.85;;;18.00;99.90;;;18.94;95.98;98345.75;5180819;28;20198;-62
2021/07/17 02:21:08;;;;;;;14.80;13.50;;;18.10;99.90;;;18.94;95.99;98352.66;5186319;28;20213;-63
2021/07/17 02:23:43;;;;;;;16.40;14.93;;;18.10;99.90;;;18.93;95.67;98348.31;5167696;28;20198;-62
2021/07/17 02:26:16;;;;;;;15.85;14.48;;;18.10;99.90;;;18.90;96.34;98346.50;5178465;28;20224;-62
2021/07/17 02:28:49;;;;;;;15.48;14.18;;;18.10;99.90;;;18.92;96.36;98351.75;5176201;28;20230;-62
2021/07/17 02:31:21;;;;;;;16.20;14.85;;;18.10;99.90;;;18.94;96.37;98355.22;5166904;28;20571;-62
2021/07/17 02:33:54;;;;;;;13.60;12.45;;;18.10;99.90;;;18.95;96.40;98359.59;5166067;28;20290;-62
2021/07/17 02:36:27;;;;;;;14.57;13.48;;;18.10;99.90;;;18.96;96.27;98354.47;5165983;28;20219;-62
2021/07/17 02:39:02;;;;;;;12.98;11.75;;;18.10;99.90;;;19.02;95.31;98349.47;5176484;28;20203;-62
2021/07/17 02:41:36;;;;;;;12.30;11.30;;;18.10;99.90;;;19.02;94.63;98348.59;5170252;28;20695;-63
2021/07/17 02:44:09;;;;;;;11.30;10.30;;;18.10;99.90;;;19.03;94.63;98355.53;5170209;28;20195;-62
2021/07/17 02:46:42;;;;;;;10.90;10.00;;;18.10;99.90;;;18.98;94.41;98357.13;5175067;28;20215;-62
2021/07/17 02:49:15;;;;;;;11.20;10.30;;;18.00;99.90;;;18.93;95.08;98366.44;5183684;28;20222;-62
2021/07/17 02:51:48;;;;;;;11.65;10.52;;;18.00;99.90;;;18.90;95.35;98364.63;5176807;28;20638;-62
2021/07/17 02:54:22;;;;;;;11.68;10.70;;;18.00;99.90;;;18.89;95.21;98355.09;5174986;28;20553;-62
2021/07/17 02:56:55;;;;;;;11.68;10.68;;;18.00;99.90;;;18.88;95.19;98356.78;5174592;28;20194;-62
2021/07/17 02:59:28;;;;;;;12.27;11.38;;;18.00;99.90;;;18.88;95.41;98361.09;5183533;28;20620;-62
2021/07/17 03:02:03;;;;;;;12.93;11.93;;;18.00;99.90;;;18.89;95.58;98361.16;5171952;28;20207;-62
2021/07/17 03:04:37;;;;;;;13.18;12.07;;;18.00;99.90;;;18.93;95.44;98364.72;5173832;28;20218;-62
2021/07/17 03:07:10;;;;;;;13.18;12.07;;;18.10;99.90;;;18.98;94.70;98355.41;5172505;28;20206;-62
2021/07/17 03:09:44;;;;;;;13.10;11.82;;;18.00;99.90;;;19.01;94.53;98357.22;5166048;28;20205;-62
2021/07/17 03:12:18;;;;;;;12.63;11.55;;;18.00;99.90;;;18.97;94.89;98361.41;5176431;28;20293;-62
2021/07/17 03:14:51;;;;;;;13.27;12.10;;;18.00;99.90;;;18.95;95.09;98351.84;5173178;28;20728;-62
2021/07/17 03:17:25;;;;;;;13.77;12.48;;;18.10;99.90;;;18.97;94.79;98350.16;5168201;28;20225;-62
2021/07/17 03:19:58;;;;;;;15.95;14.43;;;18.00;99.90;;;18.96;94.66;98358.75;5164778;28;20557;-63
2021/07/17 03:22:31;;;;;;;17.35;15.75;;;18.10;99.90;;;18.94;94.29;98363.00;5166218;28;20210;-62
2021/07/17 03:25:07;;;;;;;18.55;16.85;;;18.10;99.90;;;18.94;92.95;98358.69;5183405;28;20215;-62
2021/07/17 03:27:40;;;;;;;16.42;15.02;;;18.10;99.90;;;18.95;93.41;98357.91;5171207;28;20219;-62
2021/07/17 03:30:15;;;;;;;16.92;15.30;;;18.10;99.90;;;18.98;93.10;98359.69;5168286;28;20659;-62
2021/07/17 03:32:48;;;;;;;16.98;15.27;;;18.10;99.90;;;19.02;93.01;98351.19;5177787;28;20204;-62
2021/07/17 03:35:21;;;;;;;16.33;14.82;;;18.10;99.90;;;19.03;92.74;98360.69;5176986;28;20223;-62
2021/07/17 03:37:54;;;;;;;16.60;15.00;;;18.10;99.90;;;19.03;92.62;98365.88;5164606;28;20203;-62
2021/07/17 03:40:28;;;;;;;15.80;14.40;;;18.10;99.90;;;19.02;93.01;98365.00;5165521;28;20195;-62
2021/07/17 03:43:01;;;;;;;17.58;15.98;;;18.20;99.90;;;19.03;93.01;98371.97;5175471;28;20198;-62
2021/07/17 03:45:34;;;;;;;15.85;14.35;;;18.20;99.90;;;19.02;92.72;98371.91;5184022;28;20223;-62
2021/07/17 03:48:07;;;;;;;18.50;16.73;;;18.10;99.90;;;19.00;92.62;98371.88;5167867;28;20219;-62
2021/07/17 03:50:40;;;;;;;17.25;15.63;;;18.10;99.90;;;18.99;92.33;98369.22;5164779;28;20588;-62
2021/07/17 03:53:13;;;;;;;17.30;15.50;;;18.10;99.90;;;18.98;92.35;98370.94;5165618;28;20690;-62
2021/07/17 03:55:48;;;;;;;17.95;16.08;;;18.10;99.90;;;19.01;92.22;98370.16;5174169;28;20724;-62
2021/07/17 03:58:22;;;;;;;18.73;16.92;;;18.10;99.90;;;18.99;92.07;98374.41;5173576;28;20197;-62
2021/07/17 04:00:55;;;;;;;17.75;16.08;;;18.10;99.90;;;18.97;92.04;98376.06;5169851;28;20195;-62
2021/07/17 04:03:28;;;;;;;16.90;15.25;;;18.10;99.90;;;19.00;91.57;98376.16;5184587;28;20198;-62
2021/07/17 04:06:01;;;;;;;19.55;17.50;;;18.10;99.90;;;19.01;91.79;98389.19;5183789;28;20218;-62
2021/07/17 04:08:34;;;;;;;18.98;17.08;;;18.20;99.90;;;19.02;91.53;98382.28;5183624;28;20659;-61
2021/07/17 04:11:09;;;;;;;17.63;15.90;;;18.20;99.90;;;19.02;91.42;98375.38;5168237;28;20215;-62
2021/07/17 04:13:42;;;;;;;18.45;16.63;;;18.10;99.90;;;19.04;91.52;98393.59;5171048;28;20662;-62
2021/07/17 04:16:15;;;;;;;19.25;17.45;;;18.20;99.90;;;19.04;91.20;98394.44;5216950;23;20228;-61
2021/07/17 04:18:48;;;;;;;18.05;16.33;;;18.10;99.90;;;19.05;91.22;98395.31;5229541;28;20231;-60
2021/07/17 04:21:21;;;;;;;17.08;15.38;;;18.20;99.90;;;19.06;91.10;98397.09;5229489;28;20195;-60
2021/07/17 04:23:54;;;;;;;19.25;17.35;;;18.20;99.90;;;19.08;91.28;98398.88;5229921;28;20834;-60
2021/07/17 04:26:28;;;;;;;19.65;17.55;;;18.20;99.90;;;19.06;91.16;98402.28;5226483;28;20225;-60
2021/07/17 04:29:01;;;;;;;18.60;16.70;;;18.20;99.90;;;19.09;91.14;98404.97;5220437;28;20217;-60
2021/07/17 04:31:35;;;;;;;19.17;17.17;;;18.20;99.90;;;19.07;91.29;98404.91;5224022;28;20236;-60
2021/07/17 04:34:08;;;;;;;18.73;16.67;;;18.20;99.90;;;19.05;91.29;98416.06;5227413;28;20198;-61
2021/07/17 04:36:41;;;;;;;18.05;16.42;;;18.20;99.90;;;19.06;91.36;98428.19;5229090;28;20300;-60
2021/07/17 04:39:14;;;;;;;20.02;18.02;;;18.20;99.90;;;19.06;91.17;98421.31;5222257;28;20197;-61
2021/07/17 04:41:48;;;;;;;19.48;17.48;;;18.20;99.90;;;19.09;91.11;98412.75;5208665;28;20300;-60
2021/07/17 04:44:21;;;;;;;19.98;18.00;;;18.20;99.90;;;19.07;91.54;98422.19;5216435;28;20193;-60
2021/07/17 04:46:54;;;;;;;19.17;17.25;;;18.20;99.90;;;19.06;90.82;98418.72;5216635;28;20225;-61
2021/07/17 04:49:27;;;;;;;18.02;16.33;;;18.20;99.90;;;19.06;90.96;98417.84;5219713;28;20228;-61
2021/07/17 04:52:00;;;;;;;18.60;16.92;;;18.20;99.90;;;19.08;90.72;98410.97;5209057;28;20685;-61
2021/07/17 04:54:34;;;;;;;18.38;16.63;;;18.20;99.90;;;19.08;90.90;98417.03;5225456;28;20236;-60
2021/07/17 04:57:09;;;;;;;19.20;17.15;;;18.20;99.90;;;19.08;90.74;98416.16;5227758;28;20252;-59
2021/07/17 04:59:42;;;;;;;17.85;16.15;;;18.20;99.90;;;19.09;90.63;98412.75;5228825;28;20219;-61
2021/07/17 05:02:15;;;;;;;17.27;15.57;;;18.20;99.90;;;19.10;90.08;98405.00;5208958;28;20198;-60
2021/07/17 05:04:48;;;;;;;20.80;16.88;;;18.20;99.90;;;19.15;90.30;98402.56;5213583;28;20205;-61
2021/07/17 05:07:21;;;;;;;18.27;16.45;;;18.30;99.90;;;19.13;90.16;98404.22;5221465;28;20201;-60
2021/07/17 05:09:54;;;;;;;18.15;16.25;;;18.30;99.90;;;19.15;90.15;98400.00;5212693;28;20300;-61
2021/07/17 05:12:28;;;;;;;17.77;16.05;;;18.30;99.90;;;19.13;90.29;98393.88;5225817;28;20197;-60
2021/07/17 05:15:01;;;;;;;17.65;15.95;;;18.20;99.90;;;19.12;90.46;98393.00;5207800;28;20205;-60
2021/07/17 05:17:34;;;;;;;18.70;16.77;;;18.20;99.90;;;19.12;90.33;98390.41;5213218;28;20197;-60
2021/07/17 05:20:10;;;;;;;19.23;17.23;;;18.20;99.90;;;19.10;90.38;98389.47;5208345;28;20633;-59
2021/07/17 05:22:43;;;;;;;18.52;16.60;;;18.20;99.90;;;19.13;90.42;98383.50;5213425;28;20560;-58
2021/07/17 05:25:16;;;;;;;18.45;16.48;;;18.30;99.90;;;19.18;90.38;98381.94;5220755;28;20689;-60
2021/07/17 05:27:51;;;;;;;20.30;18.17;;;18.30;99.90;;;19.17;90.35;98382.75;5215619;28;20221;-60
2021/07/17 05:30:24;;;;;;;19.77;17.65;;;18.30;99.90;;;19.16;90.46;98388.78;5215337;28;20221;-58
2021/07/17 05:32:57;;;;;;;19.63;17.63;;;18.30;99.90;;;19.23;89.70;98400.22;5224164;28;20590;-60
2021/07/17 05:35:30;;;;;;;18.33;16.55;;;18.30;99.90;;;19.18;89.82;98397.50;5221069;28;20247;-61
2021/07/17 05:38:04;;;;;;;18.52;16.63;;;18.30;99.90;;;19.20;89.89;98401.03;5228105;28;20543;-61
2021/07/17 05:40:37;;;;;;;20.38;17.63;;;18.30;99.90;;;19.16;90.36;98408.63;5227799;28;20225;-60
2021/07/17 05:43:11;;;;;;;19.98;18.08;;;18.30;99.90;;;19.12;91.11;98405.94;5224086;28;20193;-61
2021/07/17 05:45:44;;;;;;;18.50;16.80;;;18.30;99.90;;;19.19;90.61;98403.56;5223923;28;20216;-60
2021/07/17 05:48:17;;;;;;;18.52;16.58;;;18.30;99.90;;;19.18;90.03;98405.28;5213937;28;20193;-60
2021/07/17 05:50:50;;;;;;;18.25;16.40;;;18.30;99.90;;;19.21;89.86;98413.13;5215411;28;20206;-60
2021/07/17 05:53:23;;;;;;;17.63;15.82;;;18.30;99.90;;;19.21;90.13;98415.72;5211116;28;20592;-59
2021/07/17 05:55:56;;;;;;;19.30;17.23;;;18.30;99.90;;;19.23;90.26;98414.06;5212970;28;20571;-57
2021/07/17 05:58:31;;;;;;;18.88;17.02;;;18.40;99.90;;;19.33;89.77;98417.81;5226169;28;20190;-60
2021/07/17 06:01:04;;;;;;;18.65;16.65;;;18.40;99.90;;;19.31;89.65;98420.34;5223227;28;20540;-59
2021/07/17 06:03:38;;;;;;;17.85;15.82;;;18.40;99.90;;;19.32;89.62;98419.53;5227503;28;20205;-60
2021/07/17 06:06:12;;;;;;;17.25;15.57;;;18.40;99.90;;;19.32;89.78;98416.94;5224891;28;20223;-61
2021/07/17 06:08:45;;;;;;;19.00;17.00;;;18.40;99.90;;;19.40;89.69;98421.47;5210582;28;20193;-61
2021/07/17 06:11:18;;;;;;;19.42;17.42;;;18.40;99.90;;;19.40;89.67;98421.47;5216489;28;20201;-59
2021/07/17 06:13:52;;;;;;;18.95;17.00;;;18.40;99.90;;;19.30;90.63;98425.50;5217703;28;20653;-60
2021/07/17 06:16:25;;;;;;;17.25;15.60;;;18.40;99.90;;;19.29;91.30;98422.03;5215698;28;20227;-59
2021/07/17 06:18:58;;;;;;;18.70;16.80;;;18.40;99.90;;;19.29;91.51;98427.22;5206568;28;20252;-60
2021/07/17 06:21:32;;;;;;;18.50;16.70;;;18.40;99.90;;;19.24;91.70;98428.78;5211491;28;20204;-61
2021/07/17 06:24:06;;;;;;;19.00;17.30;;;18.40;99.90;;;19.18;92.02;98436.38;5227105;28;20323;-58
2021/07/17 06:26:39;;;;;;;19.35;17.40;;;18.40;99.90;;;19.16;92.45;98431.97;5218376;28;20217;-59
2021/07/17 06:29:13;;;;;;;21.90;18.35;;;18.30;99.90;;;19.09;92.82;98436.06;5221411;28;20221;-58
2021/07/17 06:31:46;;;;;;;23.42;19.10;;;18.30;99.90;;;19.10;93.49;98437.81;5214342;28;20199;-59
2021/07/17 06:34:20;;;;;;;21.08;18.88;;;18.30;99.90;;;19.10;93.49;98435.22;5216795;28;20209;-59
2021/07/17 06:36:53;;;;;;;19.10;16.00;;;18.30;99.90;;;19.06;93.42;98428.19;5214905;28;20213;-58
2021/07/17 06:39:27;;;;;;;18.50;16.58;;;18.30;99.90;;;19.16;93.51;98439.75;5214920;28;20341;-60
2021/07/17 06:42:00;;;;;;;19.10;17.15;;;18.30;99.90;;;19.12;93.46;98434.47;5219317;28;20634;-66
2021/07/17 06:44:35;;;;;;;20.60;17.40;;;18.30;99.90;;;19.22;93.52;98433.03;5221541;28;20208;-65
2021/07/17 06:47:10;;;;;;;18.70;16.80;;;18.30;99.90;;;19.25;93.07;98435.72;5224561;28;20254;-62
2021/07/17 06:49:43;;;;;;;18.65;16.75;;;18.40;99.90;;;19.36;92.93;98433.47;5218194;28;20221;-63
2021/07/17 06:52:16;;;;;;;19.05;16.92;;;18.40;99.90;;;19.43;91.98;98430.25;5206069;28;20200;-62
2021/07/17 06:54:49;;;;;;;18.95;17.05;;;18.40;99.90;;;19.43;92.40;98437.13;5205958;28;20201;-62
2021/07/17 06:57:22;;;;;;;19.67;17.65;;;18.40;99.90;;;19.54;91.49;98435.75;5207876;28;20194;-62
2021/07/17 06:59:56;;;;;;;18.25;16.42;;;18.40;99.90;;;19.50;91.91;98442.56;5205810;28;20204;-61
2021/07/17 07:02:29;;;;;;;19.88;17.42;;;18.50;99.90;;;19.57;91.81;98433.25;5221883;28;20204;-62
2021/07/17 07:05:03;;;;;;;20.40;18.20;;;18.50;99.90;;;19.61;91.09;98427.34;5228190;28;20736;-63
2021/07/17 07:07:37;;;;;;;19.17;17.23;;;18.50;99.90;;;19.64;90.56;98431.75;5215406;28;20198;-62
2021/07/17 07:10:11;;;;;;;19.33;17.35;;;18.50;99.90;;;19.71;89.74;98431.13;5213750;28;20217;-64
2021/07/17 07:12:44;;;;;;;20.35;18.17;;;18.50;99.90;;;19.69;89.74;98435.41;5212291;28;20200;-65
2021/07/17 07:15:21;;;;;;;19.45;17.33;;;18.60;99.90;;;19.69;89.50;98443.19;5214990;28;20225;-64
2021/07/17 07:17:54;;;;;;;19.70;17.65;;;18.50;99.90;;;19.62;90.12;98444.66;5223705;28;20196;-63
2021/07/17 07:20:27;;;;;;;20.45;17.75;;;18.50;99.90;;;19.62;90.05;98452.44;5214930;28;20190;-63
2021/07/17 07:23:02;;;;;;;19.48;17.45;;;18.50;99.90;;;19.66;89.67;98458.63;5215313;28;20606;-63
2021/07/17 07:25:35;;;;;;;21.25;17.90;;;18.50;99.90;;;19.59;90.27;98452.34;5235495;28;20599;-62
2021/07/17 07:28:08;;;;;;;20.90;18.67;;;18.60;99.90;;;19.64;90.84;98455.09;5229733;28;20285;-62
2021/07/17 07:30:42;;;;;;;20.33;17.98;;;18.70;99.90;;;19.56;91.35;98458.31;5247186;28;20231;-63
2021/07/17 07:33:16;;;;;;;20.67;18.23;;;18.60;99.90;;;19.55;91.28;98468.66;5231034;28;20220;-63
2021/07/17 07:35:49;;;;;;;19.95;17.85;;;18.50;99.90;;;19.51;90.93;98469.38;5226142;28;20600;-63
2021/07/17 07:38:22;;;;;;;19.17;17.25;;;18.50;99.90;;;19.48;91.33;98471.88;5208451;28;20220;-63
2021/07/17 07:40:55;;;;;;;18.23;16.38;;;18.50;99.90;;;19.50;91.65;98472.81;5217915;28;20211;-63
2021/07/17 07:43:28;;;;;;;17.80;16.00;;;18.50;99.90;;;19.54;91.44;98474.66;5213599;28;20190;-62
2021/07/17 07:46:02;;;;;;;19.05;16.25;;;18.50;99.90;;;19.58;91.80;98476.53;5224035;28;20224;-62
2021/07/17 07:48:35;;;;;;;17.13;15.63;;;18.50;99.90;;;19.63;91.14;98469.78;5223477;28;20205;-62
2021/07/17 07:51:09;;;;;;;18.40;16.60;;;18.50;99.90;;;19.66;90.75;98469.00;5220735;28;20595;-62
2021/07/17 07:53:42;;;;;;;17.88;16.08;;;18.60;99.90;;;19.72;90.66;98475.28;5212560;28;20198;-62
2021/07/17 07:56:15;;;;;;;16.70;14.90;;;18.60;99.90;;;19.75;90.84;98466.72;5221590;28;20223;-62
2021/07/17 07:58:48;;;;;;;17.50;15.70;;;18.70;99.90;;;19.89;89.61;98464.53;5211622;28;20198;-62
2021/07/17 08:01:22;;;;;;;18.50;16.10;;;18.80;99.90;;;20.00;88.76;98466.63;5213383;28;20202;-63
2021/07/17 08:03:55;;;;;;;16.85;15.18;;;18.80;99.90;;;20.03;88.67;98469.28;5213714;28;20605;-62
2021/07/17 08:06:28;;;;;;;16.92;15.38;;;18.80;99.90;;;20.06;88.19;98468.50;5216274;28;20228;-62
2021/07/17 08:09:01;;;;;;;16.75;15.05;;;18.80;99.90;;;19.98;88.38;98470.88;5219931;28;20687;-63
2021/07/17 08:11:34;;;;;;;16.38;14.90;;;18.80;99.90;;;19.93;88.85;98469.84;5210698;28;20892;-63
2021/07/17 08:14:07;;;;;;;16.50;14.90;;;18.90;99.90;;;19.98;88.99;98467.41;5212184;28;20541;-63
2021/07/17 08:16:42;;;;;;;17.15;15.63;;;18.90;99.90;;;20.22;87.44;98472.41;5216986;28;20232;-62
2021/07/17 08:19:16;;;;;;;17.02;15.52;;;18.90;99.90;;;20.11;88.23;98466.91;5213111;28;20201;-63
2021/07/17 08:21:50;;;;;;;17.17;15.63;;;18.90;99.90;;;20.07;88.20;98466.78;5212829;28;20192;-62
2021/07/17 08:24:23;;;;;;;17.20;15.55;;;18.90;99.90;;;20.02;88.71;98459.72;5212547;28;20224;-62
2021/07/17 08:26:56;;;;;;;16.60;15.00;;;18.90;99.90;;;20.03;88.28;98471.03;5213327;28;20220;-63
2021/07/17 08:29:29;;;;;;;17.63;15.32;;;18.90;99.90;;;20.02;88.07;98464.06;5203829;28;20212;-62
2021/07/17 08:32:03;;;;;;;17.80;16.20;;;18.80;99.90;;;20.01;87.78;98477.88;5205031;28;20721;-62
2021/07/17 08:34:37;;;;;;;17.75;16.02;;;18.80;99.90;;;19.99;88.08;98470.03;5222400;28;20649;-61
2021/07/17 08:37:10;;;;;;;16.48;14.98;;;18.80;99.90;;;19.98;88.55;98468.28;5215333;28;20218;-62
2021/07/17 08:39:43;;;;;;;16.67;15.07;;;18.90;99.90;;;19.99;88.24;98472.63;5216451;28;20216;-62
2021/07/17 08:42:17;;;;;;;15.43;14.00;;;18.90;99.90;;;19.99;88.32;98476.94;5210061;28;20668;-63
2021/07/17 08:44:53;;;;;;;17.13;15.45;;;18.90;99.90;;;19.97;88.65;98470.81;5219336;28;20199;-62
2021/07/17 08:47:30;;;;;;;16.85;15.30;;;18.90;99.90;;;20.02;88.48;98459.72;5222001;28;20196;-62
2021/07/17 08:50:05;;;;;;;17.63;15.93;;;18.80;99.90;;;20.04;88.03;98464.97;5220850;28;20194;-63
2021/07/17 08:52:38;;;;;;;16.70;15.15;;;18.80;99.90;;;20.05;87.89;98469.31;5222836;28;20209;-62
2021/07/17 08:55:13;;;;;;;16.95;15.20;;;18.80;99.90;;;20.08;87.65;98456.44;5221366;28;20231;-63
2021/07/17 08:57:46;;;;;;;17.73;15.90;;;18.90;99.90;;;20.09;87.95;98455.63;5219087;28;20571;-62
2021/07/17 09:00:23;;;;;;;18.17;16.58;;;18.90;99.90;;;20.24;87.29;98458.66;5221739;28;20324;-63
2021/07/17 09:02:59;;;;;;;17.63;15.98;;;19.00;99.90;;;20.32;87.23;98455.41;5216828;28;20193;-62
2021/07/17 09:05:36;;;;;;;18.48;16.30;;;19.10;99.90;;;20.32;88.01;98468.38;5226055;28;20252;-61
2021/07/17 09:08:10;;;;;;;18.85;17.08;;;19.20;99.90;;;20.36;88.00;98465.03;5213525;28;20205;-63
2021/07/17 09:10:45;;;;;;;16.95;15.35;;;19.20;99.90;;;20.27;88.64;98462.19;5218175;28;20230;-62
2021/07/17 09:13:21;;;;;;;18.45;16.55;;;19.20;99.90;;;20.30;88.01;98470.91;5216921;28;20209;-62
2021/07/17 09:16:03;;;;;;;19.08;17.17;;;19.20;99.90;;;20.37;87.83;98466.78;5214737;28;20252;-64
2021/07/17 09:18:44;;;;;;;19.52;17.63;;;19.20;99.90;;;20.29;88.70;98468.28;5212239;28;20623;-62
2021/07/17 09:21:23;;;;;;;21.20;18.42;;;19.10;99.90;;;20.20;89.10;98464.59;5215670;28;20190;-62
2021/07/17 09:24:00;;;;;;;18.33;16.42;;;19.10;99.90;;;20.21;89.06;98470.66;5214759;28;20201;-62
2021/07/17 09:26:35;;;;;;;18.02;16.30;;;19.10;99.90;;;20.14;89.08;98459.19;5224938;28;20711;-61
2021/07/17 09:29:11;;;;;;;18.98;16.90;;;19.10;99.90;;;20.22;88.87;98467.22;5221551;28;20665;-63
2021/07/17 09:31:55;;;;;;;18.33;16.52;;;19.20;99.90;;;20.21;88.84;98461.16;5214484;28;20247;-62
2021/07/17 09:34:33;;;;;;;20.35;18.30;;;19.10;99.90;;;20.27;88.27;98451.78;5214601;28;20552;-62
2021/07/17 09:37:09;;;;;;;21.73;19.63;;;19.10;99.90;;;20.28;88.12;98457.00;5223580;28;20220;-62
2021/07/17 09:39:49;;;;;;;22.08;19.77;;;19.20;99.90;;;20.23;89.49;98443.00;5217749;28;20221;-62
2021/07/17 09:42:23;;;;;;;23.80;21.20;;;19.20;99.90;;;20.28;90.84;98437.97;5206120;28;20205;-62
2021/07/17 09:44:56;;;;;;;24.15;21.58;;;19.40;99.90;;;20.42;91.38;98439.22;5206664;28;20198;-62
2021/07/17 09:47:29;;;;;;;24.45;21.85;;;19.60;99.90;;;20.56;92.05;98430.13;5221140;28;20203;-63
2021/07/17 09:50:14;;;;;;;22.40;20.00;;;19.80;99.90;;;20.74;90.92;98428.84;5213357;28;20197;-62
2021/07/17 09:52:47;;;;;;;23.33;20.92;;;19.90;99.90;;;20.88;90.83;98430.94;5222366;28;20213;-62
2021/07/17 09:55:20;;;;;;;24.00;20.05;;;20.00;99.90;;;20.99;89.76;98417.34;5207675;28;20224;-62
2021/07/17 09:57:53;;;;;;;22.10;19.98;;;20.10;99.90;;;21.04;89.75;98427.03;5206364;28;20288;-62
2021/07/17 10:00:26;;;;;;;24.17;21.67;;;20.20;99.90;;;20.98;88.87;98421.69;5213221;28;20563;-62
2021/07/17 10:03:02;;;;;;;23.20;20.80;;;20.20;99.90;;;21.11;89.22;98418.53;5205336;28;20613;-62
2021/07/17 10:05:41;;;;;;;21.02;18.77;;;20.10;99.90;;;21.14;86.65;98429.00;5205775;28;20314;-60
2021/07/17 10:08:15;;;;;;;19.13;17.33;;;20.20;99.90;;;21.01;87.45;98419.16;5219259;28;20254;-62
2021/07/17 10:11:02;;;;;;;20.33;18.33;;;20.10;99.90;;;21.05;87.65;98420.97;5215572;28;20197;-63
2021/07/17 10:13:35;;;;;;;22.38;19.73;;;20.00;99.90;;;20.98;87.48;98436.41;5216741;28;20287;-62
2021/07/17 10:16:17;;;;;;;21.35;18.92;;;20.00;99.90;;;20.97;88.34;98427.69;5222473;28;20222;-62
2021/07/17 10:18:55;;;;;;;21.08;18.95;;;20.10;99.90;;;21.03;87.15;98430.47;5212657;28;20228;-61
2021/07/17 10:21:29;;;;;;;21.67;19.58;;;20.00;99.90;;;20.96;87.57;98444.16;5219558;28;20634;-62
2021/07/17 10:24:03;;;;;;;22.13;19.83;;;20.00;99.90;;;20.90;87.83;98444.00;5224738;28;20200;-61
2021/07/17 10:26:37;;;;;;;25.58;22.05;;;19.90;99.90;;;20.87;88.34;98437.00;5215763;28;20229;-62
2021/07/17 10:29:13;;;;;;;25.63;21.88;;;19.80;99.90;;;20.82;89.40;98440.31;5216651;28;20668;-61
2021/07/17 10:31:49;;;;;;;23.15;20.70;;;19.80;99.90;;;20.85;88.08;98435.19;5213319;28;20229;-62
2021/07/17 10:34:23;;;;;;;24.90;21.80;;;19.90;99.90;;;20.95;87.07;98426.81;5217263;28;20227;-62
2021/07/17 10:37:03;;;;;;;23.85;21.35;;;19.90;99.90;;;21.01;86.36;98433.88;5215413;28;20213;-62